createdAt,value
2022-10-19T00:01:16.714Z,84.51
2022-10-19T00:03:46.872Z,84.47
2022-10-19T00:06:20.233Z,84.67
2022-10-19T00:08:48.217Z,84.44
2022-10-19T00:11:16.061Z,84.08
2022-10-19T00:13:44.116Z,84.41
2022-10-19T00:16:14.665Z,84.38
2022-10-19T00:18:43.928Z,84.72
2022-10-19T00:21:18.802Z,84.67
2022-10-19T00:23:49.274Z,84.54
2022-10-19T00:26:17.111Z,84.27
2022-10-19T00:28:45.576Z,83.22
2022-10-19T00:31:17.162Z,83.82
2022-10-19T00:33:46.234Z,84.12
2022-10-19T00:36:18.825Z,84.25
2022-10-19T00:38:47.388Z,83.94
2022-10-19T00:41:17.505Z,83.81
2022-10-19T00:43:59.258Z,83.35
2022-10-19T00:46:29.816Z,83.40
2022-10-19T00:49:04.020Z,83.10
2022-10-19T00:51:39.473Z,82.86
2022-10-19T00:54:09.399Z,82.98
2022-10-19T00:56:41.391Z,83.06
2022-10-19T00:59:10.475Z,82.58
2022-10-19T01:01:38.467Z,81.51
2022-10-19T01:04:06.873Z,81.28
2022-10-19T01:06:36.105Z,79.92
2022-10-19T01:09:04.215Z,81.31
2022-10-19T01:12:07.194Z,81.24
2022-10-19T01:14:47.357Z,80.45
2022-10-19T01:17:33.034Z,79.57
2022-10-19T01:20:28.286Z,81.15
2022-10-19T01:23:14.556Z,81.06
2022-10-19T01:26:01.168Z,81.33
2022-10-19T01:28:29.146Z,81.06
2022-10-19T01:31:14.005Z,81.68
2022-10-19T01:34:10.101Z,81.83
2022-10-19T01:36:44.855Z,82.18
2022-10-19T01:39:38.844Z,81.66
2022-10-19T01:42:19.878Z,82.00
2022-10-19T01:44:55.196Z,82.56
2022-10-19T01:47:27.685Z,82.85
2022-10-19T01:50:25.147Z,82.42
2022-10-19T01:52:55.452Z,82.07
2022-10-19T01:55:26.830Z,82.22
2022-10-19T01:58:00.842Z,82.31
2022-10-19T02:00:31.425Z,82.43
2022-10-19T02:03:02.308Z,82.13
2022-10-19T02:05:33.597Z,82.59
2022-10-19T02:08:06.942Z,82.66
2022-10-19T02:10:38.618Z,83.25
2022-10-19T02:13:08.207Z,83.24
2022-10-19T02:15:41.228Z,83.35
2022-10-19T02:18:12.734Z,83.43
2022-10-19T02:20:41.014Z,83.70
2022-10-19T02:23:09.778Z,83.68
2022-10-19T02:25:37.640Z,84.22
2022-10-19T02:28:07.019Z,84.22
2022-10-19T02:30:36.400Z,84.06
2022-10-19T02:33:04.699Z,84.25
2022-10-19T02:35:33.533Z,84.48
2022-10-19T02:38:04.062Z,84.18
2022-10-19T02:40:36.232Z,84.19
2022-10-19T02:43:09.967Z,83.91
2022-10-19T02:45:46.877Z,84.08
2022-10-19T02:48:21.714Z,84.26
2022-10-19T02:50:49.638Z,84.01
2022-10-19T02:53:18.269Z,83.83
2022-10-19T02:55:49.230Z,83.91
2022-10-19T02:58:17.059Z,83.96
2022-10-19T03:00:45.122Z,83.93
2022-10-19T03:03:13.288Z,83.75
2022-10-19T03:05:41.621Z,83.30
2022-10-19T03:08:09.951Z,82.86
2022-10-19T03:10:38.065Z,82.44
2022-10-19T03:13:05.886Z,82.59
2022-10-19T03:15:33.982Z,82.82
2022-10-19T03:18:01.973Z,83.00
2022-10-19T03:20:30.318Z,83.13
2022-10-19T03:22:58.137Z,83.14
2022-10-19T03:25:26.002Z,82.97
2022-10-19T03:27:53.923Z,82.96
2022-10-19T03:30:21.729Z,83.21
2022-10-19T03:32:49.728Z,83.17
2022-10-19T03:35:17.787Z,83.36
2022-10-19T03:37:45.734Z,83.27
2022-10-19T03:40:13.682Z,83.21
2022-10-19T03:42:41.443Z,83.03
2022-10-19T03:45:09.865Z,83.25
2022-10-19T03:47:37.724Z,83.12
2022-10-19T03:50:06.356Z,83.42
2022-10-19T03:52:34.168Z,83.55
2022-10-19T03:55:02.165Z,82.89
2022-10-19T03:57:29.967Z,83.35
2022-10-19T03:59:57.858Z,83.16
2022-10-19T04:02:26.107Z,83.32
2022-10-19T04:04:53.973Z,83.62
2022-10-19T04:07:21.894Z,83.32
2022-10-19T04:09:50.274Z,83.21
2022-10-19T04:12:18.120Z,82.96
2022-10-19T04:14:56.831Z,82.96
2022-10-19T04:17:25.765Z,82.85
2022-10-19T04:19:53.870Z,83.28
2022-10-19T04:22:21.762Z,83.28
2022-10-19T04:24:49.640Z,83.20
2022-10-19T04:27:17.533Z,83.24
2022-10-19T04:29:45.560Z,83.11
2022-10-19T04:32:13.478Z,83.12
2022-10-19T04:34:41.626Z,83.24
2022-10-19T04:37:09.431Z,83.24
2022-10-19T04:39:37.810Z,83.17
2022-10-19T04:42:05.691Z,83.31
2022-10-19T04:44:33.658Z,83.48
2022-10-19T04:47:01.622Z,83.33
2022-10-19T04:49:29.597Z,82.85
2022-10-19T04:51:57.492Z,82.64
2022-10-19T04:54:25.457Z,82.50
2022-10-19T04:56:53.257Z,82.43
2022-10-19T04:59:21.383Z,81.80
2022-10-19T05:01:49.465Z,82.01
2022-10-19T05:04:17.518Z,81.58
2022-10-19T05:06:45.408Z,81.50
2022-10-19T05:09:13.571Z,81.33
2022-10-19T05:11:41.574Z,81.30
2022-10-19T05:14:09.766Z,80.12
2022-10-19T05:16:37.781Z,77.83
2022-10-19T05:19:05.853Z,78.03
2022-10-19T05:21:33.884Z,79.74
2022-10-19T05:24:02.185Z,79.76
2022-10-19T05:26:30.312Z,80.36
2022-10-19T05:29:00.904Z,80.06
2022-10-19T05:31:31.836Z,80.22
2022-10-19T05:34:01.061Z,79.89
2022-10-19T05:36:31.775Z,79.08
2022-10-19T05:39:03.497Z,79.86
2022-10-19T05:41:31.717Z,79.81
2022-10-19T05:44:01.789Z,79.27
2022-10-19T05:46:31.112Z,79.53
2022-10-19T05:49:00.970Z,79.49
2022-10-19T05:51:29.043Z,79.05
2022-10-19T05:53:57.224Z,79.81
2022-10-19T05:56:28.118Z,79.73
2022-10-19T05:58:58.873Z,79.46
2022-10-19T06:01:28.488Z,79.29
2022-10-19T06:03:59.786Z,79.02
2022-10-19T06:06:28.653Z,78.40
2022-10-19T06:08:57.923Z,78.88
2022-10-19T06:11:35.309Z,78.70
2022-10-19T06:14:06.316Z,78.73
2022-10-19T06:16:35.197Z,78.55
2022-10-19T06:19:05.561Z,78.47
2022-10-19T06:21:34.866Z,78.05
2022-10-19T06:24:05.629Z,78.37
2022-10-19T06:26:34.715Z,78.59
2022-10-19T06:29:04.419Z,78.29
2022-10-19T06:31:35.888Z,79.00
2022-10-19T06:34:05.150Z,78.57
2022-10-19T06:36:33.755Z,78.68
2022-10-19T06:39:02.604Z,78.50
2022-10-19T06:41:31.600Z,78.67
2022-10-19T06:43:59.774Z,79.13
2022-10-19T06:46:28.164Z,78.38
2022-10-19T06:48:58.427Z,78.81
2022-10-19T06:51:28.720Z,77.86
2022-10-19T06:53:57.486Z,78.20
2022-10-19T06:56:26.927Z,78.07
2022-10-19T06:58:55.446Z,78.46
2022-10-19T07:01:24.193Z,78.20
2022-10-19T07:03:53.214Z,78.19
2022-10-19T07:06:22.141Z,78.26
2022-10-19T07:08:50.432Z,78.02
2022-10-19T07:11:20.667Z,77.74
2022-10-19T07:13:48.834Z,77.70
2022-10-19T07:16:21.014Z,77.43
2022-10-19T07:18:54.203Z,76.97
2022-10-19T07:21:23.391Z,77.87
2022-10-19T07:23:51.983Z,78.17
2022-10-19T07:26:26.711Z,77.47
2022-10-19T07:28:58.306Z,77.25
2022-10-19T07:31:29.135Z,77.56
2022-10-19T07:34:02.682Z,76.79
2022-10-19T07:36:33.598Z,76.36
2022-10-19T07:39:02.360Z,75.50
2022-10-19T07:41:30.374Z,76.06
2022-10-19T07:43:58.657Z,76.48
2022-10-19T07:46:28.708Z,77.01
2022-10-19T07:48:56.668Z,77.33
2022-10-19T07:51:26.096Z,77.89
2022-10-19T07:53:54.317Z,77.79
2022-10-19T07:56:24.505Z,77.97
2022-10-19T07:58:54.773Z,78.46
2022-10-19T08:01:26.233Z,78.65
2022-10-19T08:04:43.224Z,79.08
2022-10-19T08:06:44.945Z,78.91
2022-10-19T08:09:27.624Z,78.74
2022-10-19T08:12:01.319Z,79.02
2022-10-19T08:14:29.435Z,78.92
2022-10-19T08:16:57.865Z,79.45
2022-10-19T08:19:25.927Z,79.21
2022-10-19T08:21:54.031Z,79.23
2022-10-19T08:24:25.270Z,78.82
2022-10-19T08:26:53.239Z,78.50
2022-10-19T08:29:21.969Z,77.75
2022-10-19T08:31:50.449Z,76.70
2022-10-19T08:34:18.495Z,76.42
2022-10-19T08:36:47.058Z,76.86
2022-10-19T08:39:15.462Z,77.16
2022-10-19T08:41:59.910Z,77.37
2022-10-19T08:44:52.705Z,77.43
2022-10-19T08:47:43.343Z,77.32
2022-10-19T08:50:24.687Z,76.96
2022-10-19T08:53:03.982Z,76.60
2022-10-19T08:56:12.484Z,76.33
2022-10-19T08:58:46.091Z,76.09
2022-10-19T09:01:29.025Z,75.70
2022-10-19T09:04:10.546Z,75.42
2022-10-19T09:06:59.347Z,75.30
2022-10-19T09:09:30.535Z,75.24
2022-10-19T09:12:05.863Z,75.03
2022-10-19T09:14:58.397Z,75.14
2022-10-19T09:17:27.043Z,75.17
2022-10-19T09:19:55.171Z,75.19
2022-10-19T09:22:36.243Z,75.02
2022-10-19T09:25:11.096Z,74.87
2022-10-19T09:27:40.825Z,74.67
2022-10-19T09:30:17.505Z,74.28
2022-10-19T09:32:46.714Z,73.86
2022-10-19T09:35:14.636Z,73.40
2022-10-19T09:37:46.819Z,73.23
2022-10-19T09:40:19.057Z,72.92
2022-10-19T09:42:47.716Z,72.44
2022-10-19T09:45:54.953Z,71.56
2022-10-19T09:48:25.911Z,71.37
2022-10-19T09:51:00.279Z,71.06
2022-10-19T09:53:29.713Z,70.70
2022-10-19T09:55:59.506Z,70.17
2022-10-19T09:58:32.911Z,69.52
2022-10-19T10:01:03.390Z,69.22
2022-10-19T10:03:37.886Z,68.97
2022-10-19T10:06:14.028Z,68.61
2022-10-19T10:08:55.296Z,68.08
2022-10-19T10:11:24.739Z,68.35
2022-10-19T10:13:55.760Z,68.00
2022-10-19T10:16:28.583Z,68.00
2022-10-19T10:19:08.026Z,67.57
2022-10-19T10:21:51.290Z,67.61
2022-10-19T10:24:22.113Z,68.11
2022-10-19T10:27:02.592Z,68.00
2022-10-19T10:29:33.450Z,67.98
2022-10-19T10:32:20.091Z,67.94
2022-10-19T10:35:04.632Z,68.53
2022-10-19T10:37:40.687Z,68.68
2022-10-19T10:40:24.762Z,69.15
2022-10-19T10:42:55.064Z,69.09
2022-10-19T10:45:30.136Z,68.67
2022-10-19T10:50:36.869Z,68.62
2022-10-19T10:53:26.241Z,68.37
2022-10-19T10:55:57.955Z,67.83
2022-10-19T10:58:47.366Z,67.15
2022-10-19T11:01:22.836Z,67.33
2022-10-19T11:04:22.933Z,67.04
2022-10-19T11:06:59.473Z,66.82
2022-10-19T11:09:46.592Z,66.69
2022-10-19T11:12:18.781Z,66.28
2022-10-19T11:15:01.641Z,65.16
2022-10-19T11:17:34.087Z,65.14
2022-10-19T11:20:02.328Z,64.78
2022-10-19T11:22:58.781Z,64.25
2022-10-19T11:25:35.823Z,64.30
2022-10-19T11:28:38.724Z,63.44
2022-10-19T11:31:18.796Z,63.52
2022-10-19T11:33:55.026Z,62.92
2022-10-19T11:37:02.852Z,62.50
2022-10-19T11:39:59.261Z,61.74
2022-10-19T11:42:40.630Z,60.90
2022-10-19T11:45:42.731Z,60.44
2022-10-19T11:48:19.615Z,60.21
2022-10-19T11:50:54.035Z,60.28
2022-10-19T11:53:35.610Z,60.89
2022-10-19T11:56:44.778Z,60.96
2022-10-19T11:59:37.940Z,61.93
2022-10-19T12:02:12.689Z,61.04
2022-10-19T12:05:13.221Z,61.06
2022-10-19T12:07:44.269Z,60.92
2022-10-19T12:10:32.560Z,60.33
2022-10-19T12:13:09.571Z,60.13
2022-10-19T12:15:46.730Z,60.08
2022-10-19T12:18:27.369Z,59.83
2022-10-19T12:20:59.475Z,59.64
2022-10-19T12:23:34.421Z,59.29
2022-10-19T12:26:06.441Z,58.96
2022-10-19T12:28:39.399Z,59.29
2022-10-19T12:31:09.625Z,59.56
2022-10-19T12:33:57.665Z,59.61
2022-10-19T12:36:35.985Z,59.61
2022-10-19T12:39:23.636Z,59.62
2022-10-19T12:42:15.728Z,59.50
2022-10-19T12:45:13.564Z,59.47
2022-10-19T12:48:10.078Z,59.41
2022-10-19T12:50:50.359Z,59.31
2022-10-19T12:53:28.125Z,59.26
2022-10-19T12:56:07.531Z,59.60
2022-10-19T12:58:47.711Z,59.48
2022-10-19T13:01:19.801Z,59.48
2022-10-19T13:03:51.381Z,59.43
2022-10-19T13:06:33.344Z,59.43
2022-10-19T13:09:07.889Z,59.84
2022-10-19T13:11:36.760Z,59.95
2022-10-19T13:14:20.246Z,60.21
2022-10-19T13:16:57.967Z,60.55
2022-10-19T13:19:26.797Z,60.57
2022-10-19T13:22:03.195Z,60.91
2022-10-19T13:24:36.694Z,60.68
2022-10-19T13:27:04.884Z,60.91
2022-10-19T13:29:39.240Z,61.06
2022-10-19T13:32:45.403Z,60.96
2022-10-19T13:35:23.873Z,60.78
2022-10-19T13:38:10.021Z,61.13
2022-10-19T13:40:56.118Z,61.95
2022-10-19T13:43:30.397Z,61.45
2022-10-19T13:46:22.492Z,61.54
2022-10-19T13:49:08.826Z,61.69
2022-10-19T13:52:03.280Z,61.84
2022-10-19T13:54:53.172Z,61.92
2022-10-19T13:58:00.617Z,61.93
2022-10-19T14:00:54.580Z,61.70
2022-10-19T14:03:45.356Z,61.45
2022-10-19T14:06:33.232Z,61.74
2022-10-19T14:09:28.906Z,61.63
2022-10-19T14:12:28.159Z,61.97
2022-10-19T14:14:56.211Z,61.98
2022-10-19T14:17:26.810Z,62.11
2022-10-19T14:19:58.029Z,62.77
2022-10-19T14:22:36.346Z,62.44
2022-10-19T14:25:20.964Z,62.20
2022-10-19T14:27:56.872Z,62.36
2022-10-19T14:30:28.605Z,62.35
2022-10-19T14:33:00.995Z,62.25
2022-10-19T14:35:42.696Z,62.41
2022-10-19T14:38:22.065Z,62.52
2022-10-19T14:40:50.205Z,62.71
2022-10-19T14:43:30.986Z,62.60
2022-10-19T14:46:08.090Z,62.46
2022-10-19T14:48:42.063Z,62.45
2022-10-19T14:51:30.784Z,62.95
2022-10-19T14:54:11.247Z,63.02
2022-10-19T14:57:04.097Z,62.64
2022-10-19T14:59:36.991Z,63.71
2022-10-19T15:02:23.001Z,62.94
2022-10-19T15:04:52.878Z,62.51
2022-10-19T15:07:26.280Z,64.22
2022-10-19T15:10:01.404Z,64.00
2022-10-19T15:12:42.130Z,64.11
2022-10-19T15:15:15.919Z,63.87
2022-10-19T15:17:53.876Z,64.14
2022-10-19T15:20:29.447Z,64.39
2022-10-19T15:22:58.713Z,64.70
2022-10-19T15:25:34.537Z,64.59
2022-10-19T15:28:31.944Z,64.82
2022-10-19T15:31:23.137Z,65.20
2022-10-19T15:33:57.789Z,65.41
2022-10-19T15:36:27.477Z,65.28
2022-10-19T15:39:06.415Z,65.48
2022-10-19T15:41:46.520Z,65.53
2022-10-19T15:44:42.783Z,66.30
2022-10-19T15:47:13.383Z,67.39
2022-10-19T15:49:41.265Z,67.10
2022-10-19T15:52:24.401Z,68.37
2022-10-19T15:54:55.060Z,69.10
2022-10-19T15:57:35.742Z,69.09
2022-10-19T16:00:14.343Z,70.59
2022-10-19T16:02:42.498Z,71.11
2022-10-19T16:05:10.765Z,69.54
2022-10-19T16:07:40.978Z,69.17
2022-10-19T16:10:16.369Z,69.82
2022-10-19T16:12:44.563Z,70.53
2022-10-19T16:15:18.535Z,71.30
2022-10-19T16:17:48.905Z,72.70
2022-10-19T16:20:17.765Z,71.76
2022-10-19T16:22:47.129Z,72.48
2022-10-19T16:25:15.368Z,71.43
2022-10-19T16:27:43.537Z,72.01
2022-10-19T16:30:13.140Z,72.23
2022-10-19T16:35:12.648Z,72.99
2022-10-19T16:37:40.904Z,72.39
2022-10-19T16:40:09.501Z,72.31
2022-10-19T16:42:37.873Z,72.44
2022-10-19T16:45:06.765Z,72.29
2022-10-19T16:47:34.770Z,73.08
2022-10-19T16:50:05.323Z,74.33
2022-10-19T16:52:34.026Z,74.14
2022-10-19T16:55:03.220Z,75.18
2022-10-19T16:57:31.292Z,73.67
2022-10-19T16:59:59.633Z,73.53
2022-10-19T17:02:27.627Z,73.62
2022-10-19T17:04:56.280Z,73.66
2022-10-19T17:07:24.667Z,73.87
2022-10-19T17:09:56.752Z,73.76
2022-10-19T17:12:25.030Z,74.01
2022-10-19T17:14:53.006Z,74.38
2022-10-19T17:17:20.927Z,75.35
2022-10-19T17:19:49.098Z,74.64
2022-10-19T17:22:17.079Z,75.97
2022-10-19T17:24:45.139Z,75.66
2022-10-19T17:27:13.310Z,76.58
2022-10-19T17:29:41.392Z,77.06
2022-10-19T17:32:09.517Z,77.33
2022-10-19T17:34:37.528Z,78.24
2022-10-19T17:37:05.930Z,77.93
2022-10-19T17:39:33.898Z,78.53
2022-10-19T17:42:02.343Z,78.73
2022-10-19T17:44:31.114Z,77.84
2022-10-19T17:47:00.507Z,78.90
2022-10-19T17:49:29.116Z,79.03
2022-10-19T17:51:57.668Z,78.91
2022-10-19T17:54:25.955Z,78.44
2022-10-19T17:56:54.284Z,79.39
2022-10-19T17:59:30.122Z,79.05
2022-10-19T18:02:04.871Z,78.72
2022-10-19T18:04:32.966Z,79.59
2022-10-19T18:07:01.181Z,79.63
2022-10-19T18:09:29.317Z,79.62
2022-10-19T18:11:57.275Z,80.55
2022-10-19T18:14:25.258Z,80.04
2022-10-19T18:16:53.570Z,80.27
2022-10-19T18:19:21.538Z,80.70
2022-10-19T18:21:49.474Z,81.25
2022-10-19T18:24:18.423Z,81.19
2022-10-19T18:26:48.222Z,80.73
2022-10-19T18:29:20.267Z,81.03
2022-10-19T18:31:49.598Z,80.96
2022-10-19T18:34:19.911Z,80.74
2022-10-19T18:36:47.893Z,81.43
2022-10-19T18:39:16.518Z,80.94
2022-10-19T18:41:44.705Z,81.48
2022-10-19T18:44:13.671Z,80.40
2022-10-19T18:46:41.710Z,80.84
2022-10-19T18:49:12.567Z,80.46
2022-10-19T18:51:40.606Z,80.87
2022-10-19T18:54:08.791Z,79.80
2022-10-19T18:56:36.855Z,81.07
2022-10-19T18:59:05.478Z,81.01
2022-10-19T19:01:33.904Z,80.83
2022-10-19T19:04:09.218Z,81.75
2022-10-19T19:06:38.427Z,81.91
2022-10-19T19:09:09.790Z,81.68
2022-10-19T19:11:39.311Z,81.56
2022-10-19T19:14:13.523Z,81.70
2022-10-19T19:16:43.451Z,81.52
2022-10-19T19:19:13.732Z,82.12
2022-10-19T19:21:42.197Z,82.02
2022-10-19T19:24:13.693Z,82.06
2022-10-19T19:26:46.020Z,81.75
2022-10-19T19:29:14.507Z,81.90
2022-10-19T19:31:42.924Z,81.84
2022-10-19T19:34:11.075Z,81.61
2022-10-19T19:39:09.697Z,81.72
2022-10-19T19:41:37.959Z,81.89
2022-10-19T19:44:06.171Z,81.70
2022-10-19T19:46:34.596Z,81.39
2022-10-19T19:49:04.415Z,81.65
2022-10-19T19:51:33.556Z,81.40
2022-10-19T19:54:01.554Z,82.02
2022-10-19T19:56:29.497Z,82.00
2022-10-19T19:58:59.642Z,81.73
2022-10-19T20:01:27.683Z,80.27
2022-10-19T20:03:58.640Z,80.86
2022-10-19T20:06:27.391Z,80.68
2022-10-19T20:08:55.973Z,81.01
2022-10-19T20:11:25.790Z,81.66
2022-10-19T20:13:53.904Z,81.95
2022-10-19T20:16:26.726Z,81.85
2022-10-19T20:19:03.925Z,81.49
2022-10-19T20:21:31.900Z,80.75
2022-10-19T20:24:00.454Z,80.50
2022-10-19T20:26:29.519Z,80.16
2022-10-19T20:28:57.871Z,80.33
2022-10-19T20:31:26.197Z,80.98
2022-10-19T20:33:54.243Z,80.87
2022-10-19T20:36:26.161Z,79.15
2022-10-19T20:38:56.834Z,80.08
2022-10-19T20:41:26.702Z,80.59
2022-10-19T20:43:55.399Z,80.73
2022-10-19T20:46:26.219Z,80.76
2022-10-19T20:48:56.524Z,80.90
2022-10-19T20:51:31.613Z,80.86
2022-10-19T20:54:02.922Z,81.01
2022-10-19T20:56:35.332Z,81.24
2022-10-19T20:59:09.400Z,81.01
2022-10-19T21:01:39.860Z,81.30
2022-10-19T21:04:10.210Z,80.85
2022-10-19T21:06:41.666Z,81.09
2022-10-19T21:09:11.495Z,79.92
2022-10-19T21:11:41.968Z,80.72
2022-10-19T21:14:29.920Z,81.30
2022-10-19T21:16:59.666Z,81.11
2022-10-19T21:19:29.049Z,80.08
2022-10-19T21:22:02.102Z,79.91
2022-10-19T21:24:33.900Z,78.48
2022-10-19T21:27:05.113Z,78.54
2022-10-19T21:29:34.090Z,79.32
2022-10-19T21:32:02.472Z,79.78
2022-10-19T21:34:31.865Z,79.04
2022-10-19T21:37:00.312Z,79.49
2022-10-19T21:39:28.667Z,78.48
2022-10-19T21:41:56.907Z,79.37
2022-10-19T21:44:24.916Z,78.72
2022-10-19T21:46:53.064Z,78.47
2022-10-19T21:49:21.478Z,79.94
2022-10-19T21:51:52.397Z,79.66
2022-10-19T21:54:23.685Z,79.38
2022-10-19T21:56:51.828Z,79.31
2022-10-19T21:59:19.926Z,78.64
2022-10-19T22:01:48.405Z,78.65
2022-10-19T22:04:17.956Z,78.84
2022-10-19T22:06:46.343Z,78.19
2022-10-19T22:09:18.899Z,79.07
2022-10-19T22:11:47.241Z,79.65
2022-10-19T22:14:16.676Z,78.27
2022-10-19T22:16:45.133Z,79.40
2022-10-19T22:19:14.204Z,79.76
2022-10-19T22:21:42.213Z,79.16
2022-10-19T22:24:15.397Z,80.32
2022-10-19T22:26:48.657Z,80.10
2022-10-19T22:29:16.806Z,80.35
2022-10-19T22:31:44.870Z,79.88
2022-10-19T22:34:15.274Z,80.17
2022-10-19T22:36:44.206Z,80.27
2022-10-19T22:39:13.400Z,79.69
2022-10-19T22:42:19.478Z,79.49
2022-10-19T22:45:25.252Z,80.10
2022-10-19T22:48:31.191Z,79.28
2022-10-19T22:51:37.160Z,78.86
2022-10-19T22:54:06.200Z,78.33
2022-10-19T22:56:34.459Z,79.17
2022-10-19T22:59:05.005Z,79.55
2022-10-19T23:01:33.610Z,79.61
2022-10-19T23:04:01.739Z,80.05
2022-10-19T23:06:30.215Z,80.06
2022-10-19T23:08:58.650Z,80.40
2022-10-19T23:11:26.659Z,80.01
2022-10-19T23:13:54.667Z,79.86
2022-10-19T23:16:22.968Z,80.47
2022-10-19T23:18:51.309Z,80.94
2022-10-19T23:21:19.388Z,81.07
2022-10-19T23:23:47.455Z,80.95
2022-10-19T23:26:18.629Z,80.77
2022-10-19T23:28:49.471Z,80.95
2022-10-19T23:31:23.068Z,81.30
2022-10-19T23:33:53.144Z,81.19
2022-10-19T23:36:23.861Z,81.27
2022-10-19T23:38:53.031Z,81.46
2022-10-19T23:41:22.492Z,81.04
2022-10-19T23:43:50.569Z,81.40
2022-10-19T23:46:18.949Z,81.23
2022-10-19T23:48:47.163Z,80.91
2022-10-19T23:51:18.023Z,81.19
2022-10-19T23:53:47.916Z,81.52
2022-10-19T23:56:27.693Z,81.12
2022-10-19T23:58:56.936Z,81.23
